sensor_id;sensor_type;location;lat;lon;timestamp;P1;durP1;ratioP1;P2;durP2;ratioP2
16442;SDS011;8331;51.654;14.376;2024-02-04T00:01:55;3.40;;;3.10;;
16442;SDS011;8331;51.654;14.376;2024-02-04T00:04:22;2.87;;;2.67;;
16442;SDS011;8331;51.654;14.376;2024-02-04T00:06:50;3.40;;;2.90;;
16442;SDS011;8331;51.654;14.376;2024-02-04T00:09:17;2.93;;;2.43;;
16442;SDS011;8331;51.654;14.376;2024-02-04T00:11:45;3.33;;;2.60;;
16442;SDS011;8331;51.654;14.376;2024-02-04T00:14:12;2.90;;;2.60;;
16442;SDS011;8331;51.654;14.376;2024-02-04T00:16:39;2.30;;;2.20;;
16442;SDS011;8331;51.654;14.376;2024-02-04T00:19:05;2.40;;;2.20;;
16442;SDS011;8331;51.654;14.376;2024-02-04T00:21:32;3.30;;;2.17;;
16442;SDS011;8331;51.654;14.376;2024-02-04T00:23:59;2.67;;;2.20;;
16442;SDS011;8331;51.654;14.376;2024-02-04T00:26:26;2.17;;;1.90;;
16442;SDS011;8331;51.654;14.376;2024-02-04T00:28:52;3.07;;;1.80;;
16442;SDS011;8331;51.654;14.376;2024-02-04T00:31:19;1.83;;;1.73;;
16442;SDS011;8331;51.654;14.376;2024-02-04T00:33:46;4.77;;;1.83;;
16442;SDS011;8331;51.654;14.376;2024-02-04T00:36:14;1.80;;;1.70;;
16442;SDS011;8331;51.654;14.376;2024-02-04T00:38:41;2.10;;;1.90;;
16442;SDS011;8331;51.654;14.376;2024-02-04T00:41:07;2.67;;;1.87;;
16442;SDS011;8331;51.654;14.376;2024-02-04T00:43:34;2.50;;;1.80;;
16442;SDS011;8331;51.654;14.376;2024-02-04T00:46:01;2.40;;;2.20;;
16442;SDS011;8331;51.654;14.376;2024-02-04T00:48:28;2.40;;;1.83;;
16442;SDS011;8331;51.654;14.376;2024-02-04T00:50:54;2.90;;;1.90;;
16442;SDS011;8331;51.654;14.376;2024-02-04T00:53:21;4.00;;;2.00;;
16442;SDS011;8331;51.654;14.376;2024-02-04T00:55:48;2.50;;;2.13;;
16442;SDS011;8331;51.654;14.376;2024-02-04T00:58:14;2.43;;;1.80;;
16442;SDS011;8331;51.654;14.376;2024-02-04T01:00:41;3.03;;;1.97;;
16442;SDS011;8331;51.654;14.376;2024-02-04T01:03:08;3.60;;;2.00;;
16442;SDS011;8331;51.654;14.376;2024-02-04T01:05:35;2.23;;;1.70;;
16442;SDS011;8331;51.654;14.376;2024-02-04T01:08:01;2.57;;;2.00;;
16442;SDS011;8331;51.654;14.376;2024-02-04T01:10:28;5.47;;;2.07;;
16442;SDS011;8331;51.654;14.376;2024-02-04T01:12:54;2.97;;;2.33;;
16442;SDS011;8331;51.654;14.376;2024-02-04T01:15:21;2.90;;;2.27;;
16442;SDS011;8331;51.654;14.376;2024-02-04T01:17:48;1.93;;;1.83;;
16442;SDS011;8331;51.654;14.376;2024-02-04T01:20:15;3.93;;;1.97;;
16442;SDS011;8331;51.654;14.376;2024-02-04T01:22:41;2.77;;;1.83;;
16442;SDS011;8331;51.654;14.376;2024-02-04T01:25:08;2.43;;;2.07;;
16442;SDS011;8331;51.654;14.376;2024-02-04T01:27:35;3.37;;;1.80;;
16442;SDS011;8331;51.654;14.376;2024-02-04T01:30:02;2.07;;;1.80;;
16442;SDS011;8331;51.654;14.376;2024-02-04T01:32:28;2.00;;;1.77;;
16442;SDS011;8331;51.654;14.376;2024-02-04T01:34:55;2.10;;;1.90;;
16442;SDS011;8331;51.654;14.376;2024-02-04T01:37:22;1.47;;;1.37;;
16442;SDS011;8331;51.654;14.376;2024-02-04T01:39:49;1.60;;;1.50;;
16442;SDS011;8331;51.654;14.376;2024-02-04T01:42:16;3.60;;;2.00;;
16442;SDS011;8331;51.654;14.376;2024-02-04T01:44:43;2.80;;;2.00;;
16442;SDS011;8331;51.654;14.376;2024-02-04T01:47:09;3.03;;;1.77;;
16442;SDS011;8331;51.654;14.376;2024-02-04T01:49:36;1.67;;;1.40;;
16442;SDS011;8331;51.654;14.376;2024-02-04T01:52:04;2.23;;;1.40;;
16442;SDS011;8331;51.654;14.376;2024-02-04T01:54:31;2.17;;;1.43;;
16442;SDS011;8331;51.654;14.376;2024-02-04T01:56:59;1.63;;;1.23;;
16442;SDS011;8331;51.654;14.376;2024-02-04T01:59:29;1.60;;;1.30;;
16442;SDS011;8331;51.654;14.376;2024-02-04T02:01:58;2.57;;;1.37;;
16442;SDS011;8331;51.654;14.376;2024-02-04T02:04:25;1.87;;;1.30;;
16442;SDS011;8331;51.654;14.376;2024-02-04T02:06:53;2.17;;;1.30;;
16442;SDS011;8331;51.654;14.376;2024-02-04T02:09:20;5.17;;;1.23;;
16442;SDS011;8331;51.654;14.376;2024-02-04T02:11:47;3.90;;;1.40;;
16442;SDS011;8331;51.654;14.376;2024-02-04T02:14:15;2.30;;;1.60;;
16442;SDS011;8331;51.654;14.376;2024-02-04T02:16:43;3.83;;;1.53;;
16442;SDS011;8331;51.654;14.376;2024-02-04T02:22:29;1.77;;;1.47;;
16442;SDS011;8331;51.654;14.376;2024-02-04T02:25:02;3.90;;;1.50;;
16442;SDS011;8331;51.654;14.376;2024-02-04T02:27:31;5.40;;;1.30;;
16442;SDS011;8331;51.654;14.376;2024-02-04T02:29:58;4.30;;;1.80;;
16442;SDS011;8331;51.654;14.376;2024-02-04T02:32:25;3.67;;;1.73;;
16442;SDS011;8331;51.654;14.376;2024-02-04T02:34:52;4.03;;;1.60;;
16442;SDS011;8331;51.654;14.376;2024-02-04T02:39:59;3.50;;;1.43;;
16442;SDS011;8331;51.654;14.376;2024-02-04T02:42:28;4.80;;;2.00;;
16442;SDS011;8331;51.654;14.376;2024-02-04T02:44:55;7.00;;;1.90;;
16442;SDS011;8331;51.654;14.376;2024-02-04T02:47:22;3.73;;;1.90;;
16442;SDS011;8331;51.654;14.376;2024-02-04T02:49:53;5.57;;;1.77;;
16442;SDS011;8331;51.654;14.376;2024-02-04T02:52:21;6.70;;;1.93;;
16442;SDS011;8331;51.654;14.376;2024-02-04T02:54:48;5.30;;;1.70;;
16442;SDS011;8331;51.654;14.376;2024-02-04T02:57:15;5.17;;;1.73;;
16442;SDS011;8331;51.654;14.376;2024-02-04T02:59:41;4.10;;;1.90;;
16442;SDS011;8331;51.654;14.376;2024-02-04T03:02:08;3.47;;;1.93;;
16442;SDS011;8331;51.654;14.376;2024-02-04T03:04:35;4.87;;;2.13;;
16442;SDS011;8331;51.654;14.376;2024-02-04T03:07:02;6.33;;;2.33;;
16442;SDS011;8331;51.654;14.376;2024-02-04T03:09:29;5.60;;;2.40;;
16442;SDS011;8331;51.654;14.376;2024-02-04T03:11:56;3.23;;;2.60;;
16442;SDS011;8331;51.654;14.376;2024-02-04T03:14:22;6.77;;;2.30;;
16442;SDS011;8331;51.654;14.376;2024-02-04T03:16:49;3.93;;;2.70;;
16442;SDS011;8331;51.654;14.376;2024-02-04T03:19:20;7.07;;;2.37;;
16442;SDS011;8331;51.654;14.376;2024-02-04T03:21:47;5.00;;;2.27;;
16442;SDS011;8331;51.654;14.376;2024-02-04T03:24:14;8.90;;;2.50;;
16442;SDS011;8331;51.654;14.376;2024-02-04T03:26:41;5.53;;;2.30;;
16442;SDS011;8331;51.654;14.376;2024-02-04T03:29:08;4.80;;;2.80;;
16442;SDS011;8331;51.654;14.376;2024-02-04T03:31:35;3.60;;;2.10;;
16442;SDS011;8331;51.654;14.376;2024-02-04T03:34:02;4.90;;;2.47;;
16442;SDS011;8331;51.654;14.376;2024-02-04T03:36:30;4.37;;;2.53;;
16442;SDS011;8331;51.654;14.376;2024-02-04T03:38:57;5.87;;;2.47;;
16442;SDS011;8331;51.654;14.376;2024-02-04T03:41:24;3.80;;;2.67;;
16442;SDS011;8331;51.654;14.376;2024-02-04T03:43:51;6.70;;;3.00;;
16442;SDS011;8331;51.654;14.376;2024-02-04T03:46:17;3.83;;;2.40;;
16442;SDS011;8331;51.654;14.376;2024-02-04T03:48:44;2.93;;;2.10;;
16442;SDS011;8331;51.654;14.376;2024-02-04T03:51:15;3.10;;;2.10;;
16442;SDS011;8331;51.654;14.376;2024-02-04T03:53:44;4.63;;;2.50;;
16442;SDS011;8331;51.654;14.376;2024-02-04T03:56:11;4.53;;;2.20;;
16442;SDS011;8331;51.654;14.376;2024-02-04T03:58:37;5.50;;;2.20;;
16442;SDS011;8331;51.654;14.376;2024-02-04T04:01:04;3.83;;;2.20;;
16442;SDS011;8331;51.654;14.376;2024-02-04T04:03:31;4.50;;;1.90;;
16442;SDS011;8331;51.654;14.376;2024-02-04T04:05:58;4.27;;;2.00;;
16442;SDS011;8331;51.654;14.376;2024-02-04T04:08:24;4.17;;;1.93;;
16442;SDS011;8331;51.654;14.376;2024-02-04T04:10:51;4.77;;;1.50;;
16442;SDS011;8331;51.654;14.376;2024-02-04T04:13:18;2.50;;;1.43;;
16442;SDS011;8331;51.654;14.376;2024-02-04T04:15:44;2.13;;;1.50;;
16442;SDS011;8331;51.654;14.376;2024-02-04T04:18:11;2.97;;;1.30;;
16442;SDS011;8331;51.654;14.376;2024-02-04T04:20:40;4.23;;;1.60;;
16442;SDS011;8331;51.654;14.376;2024-02-04T04:23:06;5.67;;;1.50;;
16442;SDS011;8331;51.654;14.376;2024-02-04T04:25:33;2.17;;;1.37;;
16442;SDS011;8331;51.654;14.376;2024-02-04T04:28:00;4.33;;;1.67;;
16442;SDS011;8331;51.654;14.376;2024-02-04T04:30:27;2.70;;;1.57;;
16442;SDS011;8331;51.654;14.376;2024-02-04T04:32:54;4.73;;;1.43;;
16442;SDS011;8331;51.654;14.376;2024-02-04T04:35:20;3.70;;;1.30;;
16442;SDS011;8331;51.654;14.376;2024-02-04T04:37:47;3.63;;;1.40;;
16442;SDS011;8331;51.654;14.376;2024-02-04T04:40:14;2.17;;;1.13;;
16442;SDS011;8331;51.654;14.376;2024-02-04T04:42:40;3.23;;;1.23;;
16442;SDS011;8331;51.654;14.376;2024-02-04T04:45:07;2.17;;;1.43;;
16442;SDS011;8331;51.654;14.376;2024-02-04T04:47:34;2.80;;;1.43;;
16442;SDS011;8331;51.654;14.376;2024-02-04T04:50:01;2.00;;;1.20;;
16442;SDS011;8331;51.654;14.376;2024-02-04T04:52:28;4.53;;;1.50;;
16442;SDS011;8331;51.654;14.376;2024-02-04T04:54:55;2.50;;;1.40;;
16442;SDS011;8331;51.654;14.376;2024-02-04T04:57:21;1.70;;;1.10;;
16442;SDS011;8331;51.654;14.376;2024-02-04T04:59:48;1.43;;;1.17;;
16442;SDS011;8331;51.654;14.376;2024-02-04T05:02:15;1.83;;;1.23;;
16442;SDS011;8331;51.654;14.376;2024-02-04T05:04:44;2.97;;;1.27;;
16442;SDS011;8331;51.654;14.376;2024-02-04T05:07:11;3.43;;;1.30;;
16442;SDS011;8331;51.654;14.376;2024-02-04T05:09:38;1.67;;;1.23;;
16442;SDS011;8331;51.654;14.376;2024-02-04T05:12:08;1.87;;;1.20;;
16442;SDS011;8331;51.654;14.376;2024-02-04T05:14:34;2.97;;;1.17;;
16442;SDS011;8331;51.654;14.376;2024-02-04T05:17:01;3.13;;;1.27;;
16442;SDS011;8331;51.654;14.376;2024-02-04T05:19:28;2.20;;;1.00;;
16442;SDS011;8331;51.654;14.376;2024-02-04T05:21:54;5.50;;;1.30;;
16442;SDS011;8331;51.654;14.376;2024-02-04T05:24:21;2.57;;;1.33;;
16442;SDS011;8331;51.654;14.376;2024-02-04T05:26:48;4.37;;;1.33;;
16442;SDS011;8331;51.654;14.376;2024-02-04T05:29:14;1.10;;;0.80;;
16442;SDS011;8331;51.654;14.376;2024-02-04T05:31:41;2.73;;;1.47;;
16442;SDS011;8331;51.654;14.376;2024-02-04T05:34:09;2.97;;;2.13;;
16442;SDS011;8331;51.654;14.376;2024-02-04T05:36:36;3.23;;;1.23;;
16442;SDS011;8331;51.654;14.376;2024-02-04T05:39:09;2.70;;;1.50;;
16442;SDS011;8331;51.654;14.376;2024-02-04T05:41:37;3.53;;;1.23;;
16442;SDS011;8331;51.654;14.376;2024-02-04T05:44:03;4.50;;;1.07;;
16442;SDS011;8331;51.654;14.376;2024-02-04T05:46:30;2.47;;;1.03;;
16442;SDS011;8331;51.654;14.376;2024-02-04T05:48:57;1.83;;;0.97;;
16442;SDS011;8331;51.654;14.376;2024-02-04T05:51:24;3.97;;;1.50;;
16442;SDS011;8331;51.654;14.376;2024-02-04T05:53:51;4.30;;;1.50;;
16442;SDS011;8331;51.654;14.376;2024-02-04T05:56:17;4.60;;;1.23;;
16442;SDS011;8331;51.654;14.376;2024-02-04T05:58:44;3.23;;;1.47;;
16442;SDS011;8331;51.654;14.376;2024-02-04T06:01:11;5.10;;;1.70;;
16442;SDS011;8331;51.654;14.376;2024-02-04T06:03:38;2.93;;;1.40;;
16442;SDS011;8331;51.654;14.376;2024-02-04T06:06:05;3.30;;;1.40;;
16442;SDS011;8331;51.654;14.376;2024-02-04T06:08:32;5.37;;;1.43;;
16442;SDS011;8331;51.654;14.376;2024-02-04T06:10:58;3.63;;;1.87;;
16442;SDS011;8331;51.654;14.376;2024-02-04T06:13:25;3.23;;;1.67;;
16442;SDS011;8331;51.654;14.376;2024-02-04T06:15:51;2.77;;;1.60;;
16442;SDS011;8331;51.654;14.376;2024-02-04T06:18:18;3.47;;;1.70;;
16442;SDS011;8331;51.654;14.376;2024-02-04T06:20:45;3.80;;;1.90;;
16442;SDS011;8331;51.654;14.376;2024-02-04T06:23:11;1.60;;;1.33;;
16442;SDS011;8331;51.654;14.376;2024-02-04T06:25:38;2.47;;;1.70;;
16442;SDS011;8331;51.654;14.376;2024-02-04T06:28:05;4.83;;;2.20;;
16442;SDS011;8331;51.654;14.376;2024-02-04T06:30:33;4.97;;;2.67;;
16442;SDS011;8331;51.654;14.376;2024-02-04T06:33:00;3.50;;;2.30;;
16442;SDS011;8331;51.654;14.376;2024-02-04T06:35:26;4.20;;;1.70;;
16442;SDS011;8331;51.654;14.376;2024-02-04T06:37:53;4.27;;;1.83;;
16442;SDS011;8331;51.654;14.376;2024-02-04T06:40:20;4.27;;;2.47;;
16442;SDS011;8331;51.654;14.376;2024-02-04T06:42:46;5.27;;;2.63;;
16442;SDS011;8331;51.654;14.376;2024-02-04T06:45:13;5.40;;;2.30;;
16442;SDS011;8331;51.654;14.376;2024-02-04T06:47:43;5.00;;;2.30;;
16442;SDS011;8331;51.654;14.376;2024-02-04T06:50:09;6.60;;;3.60;;
16442;SDS011;8331;51.654;14.376;2024-02-04T06:52:41;5.70;;;4.20;;
16442;SDS011;8331;51.654;14.376;2024-02-04T06:55:08;5.60;;;2.53;;
16442;SDS011;8331;51.654;14.376;2024-02-04T06:57:35;6.83;;;2.00;;
16442;SDS011;8331;51.654;14.376;2024-02-04T07:00:02;4.70;;;2.00;;
16442;SDS011;8331;51.654;14.376;2024-02-04T07:02:31;4.53;;;2.30;;
16442;SDS011;8331;51.654;14.376;2024-02-04T07:04:58;4.97;;;2.40;;
16442;SDS011;8331;51.654;14.376;2024-02-04T07:07:25;3.30;;;2.20;;
16442;SDS011;8331;51.654;14.376;2024-02-04T07:09:51;4.23;;;2.33;;
16442;SDS011;8331;51.654;14.376;2024-02-04T07:12:18;3.63;;;2.37;;
16442;SDS011;8331;51.654;14.376;2024-02-04T07:14:46;4.70;;;2.40;;
16442;SDS011;8331;51.654;14.376;2024-02-04T07:17:12;5.20;;;2.70;;
16442;SDS011;8331;51.654;14.376;2024-02-04T07:19:39;5.50;;;2.60;;
16442;SDS011;8331;51.654;14.376;2024-02-04T07:22:06;4.33;;;2.50;;
16442;SDS011;8331;51.654;14.376;2024-02-04T07:24:33;2.93;;;2.50;;
16442;SDS011;8331;51.654;14.376;2024-02-04T07:26:59;2.87;;;2.10;;
16442;SDS011;8331;51.654;14.376;2024-02-04T07:29:26;2.83;;;2.20;;
16442;SDS011;8331;51.654;14.376;2024-02-04T07:31:53;4.27;;;2.50;;
16442;SDS011;8331;51.654;14.376;2024-02-04T07:34:19;4.23;;;2.50;;
16442;SDS011;8331;51.654;14.376;2024-02-04T07:36:46;3.93;;;2.70;;
16442;SDS011;8331;51.654;14.376;2024-02-04T07:39:13;5.13;;;2.50;;
16442;SDS011;8331;51.654;14.376;2024-02-04T07:41:39;2.93;;;2.30;;
16442;SDS011;8331;51.654;14.376;2024-02-04T07:44:06;5.57;;;2.60;;
16442;SDS011;8331;51.654;14.376;2024-02-04T07:46:33;6.30;;;2.50;;
16442;SDS011;8331;51.654;14.376;2024-02-04T07:48:59;9.00;;;7.47;;
16442;SDS011;8331;51.654;14.376;2024-02-04T07:51:26;4.47;;;3.37;;
16442;SDS011;8331;51.654;14.376;2024-02-04T07:53:53;4.50;;;4.07;;
16442;SDS011;8331;51.654;14.376;2024-02-04T07:56:19;5.47;;;2.87;;
16442;SDS011;8331;51.654;14.376;2024-02-04T07:58:46;5.77;;;3.10;;
16442;SDS011;8331;51.654;14.376;2024-02-04T08:01:12;5.40;;;3.30;;
16442;SDS011;8331;51.654;14.376;2024-02-04T08:03:39;4.40;;;3.07;;
16442;SDS011;8331;51.654;14.376;2024-02-04T08:06:06;3.37;;;2.93;;
16442;SDS011;8331;51.654;14.376;2024-02-04T08:08:33;4.63;;;3.03;;
16442;SDS011;8331;51.654;14.376;2024-02-04T08:11:00;4.10;;;3.17;;
16442;SDS011;8331;51.654;14.376;2024-02-04T08:13:27;5.80;;;3.90;;
16442;SDS011;8331;51.654;14.376;2024-02-04T08:15:54;5.03;;;4.43;;
16442;SDS011;8331;51.654;14.376;2024-02-04T08:18:21;5.70;;;4.23;;
16442;SDS011;8331;51.654;14.376;2024-02-04T08:20:47;4.77;;;4.27;;
16442;SDS011;8331;51.654;14.376;2024-02-04T08:23:14;7.87;;;4.70;;
16442;SDS011;8331;51.654;14.376;2024-02-04T08:25:41;6.23;;;5.40;;
16442;SDS011;8331;51.654;14.376;2024-02-04T08:28:08;5.63;;;5.23;;
16442;SDS011;8331;51.654;14.376;2024-02-04T08:30:35;7.57;;;5.83;;
16442;SDS011;8331;51.654;14.376;2024-02-04T08:33:01;7.43;;;6.07;;
16442;SDS011;8331;51.654;14.376;2024-02-04T08:35:28;6.10;;;5.50;;
16442;SDS011;8331;51.654;14.376;2024-02-04T08:37:55;6.07;;;5.27;;
16442;SDS011;8331;51.654;14.376;2024-02-04T08:40:21;6.03;;;4.87;;
16442;SDS011;8331;51.654;14.376;2024-02-04T08:42:48;5.87;;;5.37;;
16442;SDS011;8331;51.654;14.376;2024-02-04T08:45:15;6.03;;;5.43;;
16442;SDS011;8331;51.654;14.376;2024-02-04T08:47:41;5.93;;;5.43;;
16442;SDS011;8331;51.654;14.376;2024-02-04T08:50:08;11.50;;;8.40;;
16442;SDS011;8331;51.654;14.376;2024-02-04T08:52:35;7.57;;;6.47;;
16442;SDS011;8331;51.654;14.376;2024-02-04T08:55:02;8.00;;;6.27;;
16442;SDS011;8331;51.654;14.376;2024-02-04T08:57:30;8.67;;;7.00;;
16442;SDS011;8331;51.654;14.376;2024-02-04T08:59:57;7.10;;;6.47;;
16442;SDS011;8331;51.654;14.376;2024-02-04T09:02:24;8.00;;;7.37;;
16442;SDS011;8331;51.654;14.376;2024-02-04T09:04:51;6.67;;;5.47;;
16442;SDS011;8331;51.654;14.376;2024-02-04T09:07:18;7.00;;;6.37;;
16442;SDS011;8331;51.654;14.376;2024-02-04T09:09:44;7.10;;;5.53;;
16442;SDS011;8331;51.654;14.376;2024-02-04T09:12:11;6.73;;;6.13;;
16442;SDS011;8331;51.654;14.376;2024-02-04T09:14:38;8.00;;;7.13;;
16442;SDS011;8331;51.654;14.376;2024-02-04T09:17:05;8.40;;;6.50;;
16442;SDS011;8331;51.654;14.376;2024-02-04T09:19:32;7.30;;;6.60;;
16442;SDS011;8331;51.654;14.376;2024-02-04T09:22:01;8.00;;;7.30;;
16442;SDS011;8331;51.654;14.376;2024-02-04T09:24:29;6.13;;;5.53;;
16442;SDS011;8331;51.654;14.376;2024-02-04T09:26:55;7.78;;;7.07;;
16442;SDS011;8331;51.654;14.376;2024-02-04T09:29:22;6.47;;;5.97;;
16442;SDS011;8331;51.654;14.376;2024-02-04T09:31:49;6.67;;;5.93;;
16442;SDS011;8331;51.654;14.376;2024-02-04T09:34:18;5.67;;;5.17;;
16442;SDS011;8331;51.654;14.376;2024-02-04T09:36:47;6.03;;;5.53;;
16442;SDS011;8331;51.654;14.376;2024-02-04T09:39:14;5.80;;;5.30;;
16442;SDS011;8331;51.654;14.376;2024-02-04T09:41:42;6.13;;;5.53;;
16442;SDS011;8331;51.654;14.376;2024-02-04T09:44:09;5.60;;;4.67;;
16442;SDS011;8331;51.654;14.376;2024-02-04T09:46:36;6.20;;;5.60;;
16442;SDS011;8331;51.654;14.376;2024-02-04T09:49:03;5.40;;;5.00;;
16442;SDS011;8331;51.654;14.376;2024-02-04T09:51:31;4.97;;;4.57;;
16442;SDS011;8331;51.654;14.376;2024-02-04T09:53:58;5.67;;;5.17;;
16442;SDS011;8331;51.654;14.376;2024-02-04T09:56:28;6.00;;;5.50;;
16442;SDS011;8331;51.654;14.376;2024-02-04T09:58:55;6.27;;;5.17;;
16442;SDS011;8331;51.654;14.376;2024-02-04T10:01:23;5.83;;;5.33;;
16442;SDS011;8331;51.654;14.376;2024-02-04T10:03:50;5.53;;;5.03;;
16442;SDS011;8331;51.654;14.376;2024-02-04T10:06:17;5.30;;;4.73;;
16442;SDS011;8331;51.654;14.376;2024-02-04T10:08:43;6.00;;;5.50;;
16442;SDS011;8331;51.654;14.376;2024-02-04T10:11:12;4.97;;;4.20;;
16442;SDS011;8331;51.654;14.376;2024-02-04T10:13:45;4.17;;;3.77;;
16442;SDS011;8331;51.654;14.376;2024-02-04T10:16:12;4.13;;;3.73;;
16442;SDS011;8331;51.654;14.376;2024-02-04T10:18:42;4.03;;;3.70;;
16442;SDS011;8331;51.654;14.376;2024-02-04T10:21:19;3.87;;;3.57;;
16442;SDS011;8331;51.654;14.376;2024-02-04T10:23:46;3.23;;;2.77;;
16442;SDS011;8331;51.654;14.376;2024-02-04T10:26:13;3.27;;;3.07;;
16442;SDS011;8331;51.654;14.376;2024-02-04T10:28:40;3.33;;;3.07;;
16442;SDS011;8331;51.654;14.376;2024-02-04T10:31:10;4.00;;;3.60;;
16442;SDS011;8331;51.654;14.376;2024-02-04T10:33:37;2.90;;;2.63;;
16442;SDS011;8331;51.654;14.376;2024-02-04T10:36:05;4.20;;;3.13;;
16442;SDS011;8331;51.654;14.376;2024-02-04T10:38:32;3.17;;;2.83;;
16442;SDS011;8331;51.654;14.376;2024-02-04T10:41:00;2.97;;;2.77;;
16442;SDS011;8331;51.654;14.376;2024-02-04T10:43:30;2.90;;;2.70;;
16442;SDS011;8331;51.654;14.376;2024-02-04T10:45:57;2.97;;;2.67;;
16442;SDS011;8331;51.654;14.376;2024-02-04T10:48:27;3.20;;;2.70;;
16442;SDS011;8331;51.654;14.376;2024-02-04T10:50:55;3.17;;;2.73;;
16442;SDS011;8331;51.654;14.376;2024-02-04T10:53:25;4.03;;;2.87;;
16442;SDS011;8331;51.654;14.376;2024-02-04T10:55:51;5.97;;;2.47;;
16442;SDS011;8331;51.654;14.376;2024-02-04T10:58:22;2.63;;;2.43;;
16442;SDS011;8331;51.654;14.376;2024-02-04T11:00:49;2.70;;;2.50;;
16442;SDS011;8331;51.654;14.376;2024-02-04T11:03:16;3.50;;;2.67;;
16442;SDS011;8331;51.654;14.376;2024-02-04T11:05:46;2.20;;;2.10;;
16442;SDS011;8331;51.654;14.376;2024-02-04T11:08:13;2.33;;;2.10;;
16442;SDS011;8331;51.654;14.376;2024-02-04T11:10:40;2.10;;;2.00;;
16442;SDS011;8331;51.654;14.376;2024-02-04T11:13:06;2.33;;;2.13;;
16442;SDS011;8331;51.654;14.376;2024-02-04T11:15:36;2.30;;;2.10;;
16442;SDS011;8331;51.654;14.376;2024-02-04T11:18:07;2.90;;;2.60;;
16442;SDS011;8331;51.654;14.376;2024-02-04T11:25:54;3.00;;;2.30;;
16442;SDS011;8331;51.654;14.376;2024-02-04T11:28:25;2.53;;;2.33;;
16442;SDS011;8331;51.654;14.376;2024-02-04T11:30:52;2.50;;;2.30;;
16442;SDS011;8331;51.654;14.376;2024-02-04T11:33:20;2.03;;;1.93;;
16442;SDS011;8331;51.654;14.376;2024-02-04T11:36:02;3.50;;;3.20;;
16442;SDS011;8331;51.654;14.376;2024-02-04T11:38:30;2.53;;;2.33;;
16442;SDS011;8331;51.654;14.376;2024-02-04T11:40:57;3.77;;;2.60;;
16442;SDS011;8331;51.654;14.376;2024-02-04T11:43:24;3.40;;;3.20;;
16442;SDS011;8331;51.654;14.376;2024-02-04T11:45:52;2.60;;;2.40;;
16442;SDS011;8331;51.654;14.376;2024-02-04T11:48:19;3.87;;;3.40;;
16442;SDS011;8331;51.654;14.376;2024-02-04T11:50:53;3.30;;;3.00;;
16442;SDS011;8331;51.654;14.376;2024-02-04T11:53:20;5.10;;;4.70;;
16442;SDS011;8331;51.654;14.376;2024-02-04T11:55:47;4.63;;;2.77;;
16442;SDS011;8331;51.654;14.376;2024-02-04T11:58:13;2.27;;;2.10;;
16442;SDS011;8331;51.654;14.376;2024-02-04T12:00:42;2.27;;;2.07;;
16442;SDS011;8331;51.654;14.376;2024-02-04T12:03:12;6.23;;;5.83;;
16442;SDS011;8331;51.654;14.376;2024-02-04T12:05:39;2.70;;;2.20;;
16442;SDS011;8331;51.654;14.376;2024-02-04T12:08:06;4.20;;;3.90;;
16442;SDS011;8331;51.654;14.376;2024-02-04T12:10:34;3.97;;;3.67;;
16442;SDS011;8331;51.654;14.376;2024-02-04T12:13:02;4.10;;;3.70;;
16442;SDS011;8331;51.654;14.376;2024-02-04T12:15:29;2.00;;;1.90;;
16442;SDS011;8331;51.654;14.376;2024-02-04T12:18:09;1.80;;;1.50;;
16442;SDS011;8331;51.654;14.376;2024-02-04T12:20:36;1.67;;;1.57;;
16442;SDS011;8331;51.654;14.376;2024-02-04T12:23:03;2.10;;;1.77;;
16442;SDS011;8331;51.654;14.376;2024-02-04T12:25:30;1.93;;;1.60;;
16442;SDS011;8331;51.654;14.376;2024-02-04T12:28:02;1.10;;;1.00;;
16442;SDS011;8331;51.654;14.376;2024-02-04T12:30:29;1.20;;;1.17;;
16442;SDS011;8331;51.654;14.376;2024-02-04T12:32:59;1.13;;;1.07;;
16442;SDS011;8331;51.654;14.376;2024-02-04T12:35:26;4.40;;;4.00;;
16442;SDS011;8331;51.654;14.376;2024-02-04T12:37:57;2.47;;;1.80;;
16442;SDS011;8331;51.654;14.376;2024-02-04T12:40:30;12.33;;;11.10;;
16442;SDS011;8331;51.654;14.376;2024-02-04T12:45:29;1.40;;;1.13;;
16442;SDS011;8331;51.654;14.376;2024-02-04T12:47:56;1.60;;;1.07;;
16442;SDS011;8331;51.654;14.376;2024-02-04T12:50:24;6.10;;;4.77;;
16442;SDS011;8331;51.654;14.376;2024-02-04T12:55:34;1.83;;;1.40;;
16442;SDS011;8331;51.654;14.376;2024-02-04T12:58:01;1.77;;;1.37;;
16442;SDS011;8331;51.654;14.376;2024-02-04T13:00:30;2.10;;;1.50;;
16442;SDS011;8331;51.654;14.376;2024-02-04T13:02:58;1.20;;;1.20;;
16442;SDS011;8331;51.654;14.376;2024-02-04T13:05:28;2.03;;;1.80;;
16442;SDS011;8331;51.654;14.376;2024-02-04T13:07:57;2.17;;;2.00;;
16442;SDS011;8331;51.654;14.376;2024-02-04T13:10:24;1.80;;;1.70;;
16442;SDS011;8331;51.654;14.376;2024-02-04T13:12:57;6.40;;;5.80;;
16442;SDS011;8331;51.654;14.376;2024-02-04T13:15:24;2.50;;;1.30;;
16442;SDS011;8331;51.654;14.376;2024-02-04T13:17:51;2.93;;;1.80;;
16442;SDS011;8331;51.654;14.376;2024-02-04T13:20:17;2.73;;;2.53;;
16442;SDS011;8331;51.654;14.376;2024-02-04T13:22:44;4.73;;;2.77;;
16442;SDS011;8331;51.654;14.376;2024-02-04T13:25:11;2.93;;;2.00;;
16442;SDS011;8331;51.654;14.376;2024-02-04T13:27:37;2.80;;;1.60;;
16442;SDS011;8331;51.654;14.376;2024-02-04T13:30:04;2.43;;;1.30;;
16442;SDS011;8331;51.654;14.376;2024-02-04T13:32:36;2.20;;;1.43;;
16442;SDS011;8331;51.654;14.376;2024-02-04T13:35:03;1.70;;;1.60;;
16442;SDS011;8331;51.654;14.376;2024-02-04T13:37:42;1.53;;;1.37;;
16442;SDS011;8331;51.654;14.376;2024-02-04T13:40:13;2.93;;;1.40;;
16442;SDS011;8331;51.654;14.376;2024-02-04T13:42:40;3.03;;;1.30;;
16442;SDS011;8331;51.654;14.376;2024-02-04T13:45:07;1.13;;;1.03;;
16442;SDS011;8331;51.654;14.376;2024-02-04T13:47:35;1.10;;;1.00;;
16442;SDS011;8331;51.654;14.376;2024-02-04T13:50:01;2.07;;;1.10;;
16442;SDS011;8331;51.654;14.376;2024-02-04T13:52:30;2.03;;;1.42;;
16442;SDS011;8331;51.654;14.376;2024-02-04T13:54:56;6.20;;;1.23;;
16442;SDS011;8331;51.654;14.376;2024-02-04T13:57:23;2.83;;;1.23;;
16442;SDS011;8331;51.654;14.376;2024-02-04T13:59:50;1.70;;;1.20;;
16442;SDS011;8331;51.654;14.376;2024-02-04T14:02:16;1.50;;;1.40;;
16442;SDS011;8331;51.654;14.376;2024-02-04T14:04:43;2.33;;;1.90;;
16442;SDS011;8331;51.654;14.376;2024-02-04T14:07:10;1.70;;;1.30;;
16442;SDS011;8331;51.654;14.376;2024-02-04T14:09:37;2.30;;;1.70;;
16442;SDS011;8331;51.654;14.376;2024-02-04T14:12:04;1.80;;;1.63;;
16442;SDS011;8331;51.654;14.376;2024-02-04T14:14:31;3.90;;;2.13;;
16442;SDS011;8331;51.654;14.376;2024-02-04T14:16:58;2.63;;;1.80;;
16442;SDS011;8331;51.654;14.376;2024-02-04T14:19:25;4.00;;;2.03;;
16442;SDS011;8331;51.654;14.376;2024-02-04T14:21:51;3.83;;;1.83;;
16442;SDS011;8331;51.654;14.376;2024-02-04T14:24:18;1.33;;;1.20;;
16442;SDS011;8331;51.654;14.376;2024-02-04T14:26:45;3.07;;;1.57;;
16442;SDS011;8331;51.654;14.376;2024-02-04T14:29:12;5.37;;;1.77;;
16442;SDS011;8331;51.654;14.376;2024-02-04T14:31:39;2.80;;;1.70;;
16442;SDS011;8331;51.654;14.376;2024-02-04T14:34:06;3.20;;;2.40;;
16442;SDS011;8331;51.654;14.376;2024-02-04T14:36:32;4.03;;;1.73;;
16442;SDS011;8331;51.654;14.376;2024-02-04T14:38:59;2.03;;;1.30;;
16442;SDS011;8331;51.654;14.376;2024-02-04T14:41:26;3.00;;;1.17;;
16442;SDS011;8331;51.654;14.376;2024-02-04T14:43:53;2.90;;;1.37;;
16442;SDS011;8331;51.654;14.376;2024-02-04T14:46:20;1.80;;;1.27;;
16442;SDS011;8331;51.654;14.376;2024-02-04T14:48:46;2.60;;;1.50;;
16442;SDS011;8331;51.654;14.376;2024-02-04T14:51:13;3.87;;;1.63;;
16442;SDS011;8331;51.654;14.376;2024-02-04T14:53:40;5.07;;;2.00;;
16442;SDS011;8331;51.654;14.376;2024-02-04T14:56:07;5.47;;;1.63;;
16442;SDS011;8331;51.654;14.376;2024-02-04T14:58:38;2.93;;;2.00;;
16442;SDS011;8331;51.654;14.376;2024-02-04T15:01:04;2.47;;;1.50;;
16442;SDS011;8331;51.654;14.376;2024-02-04T15:03:31;2.30;;;1.30;;
16442;SDS011;8331;51.654;14.376;2024-02-04T15:05:58;3.20;;;2.10;;